Stolt Spray — ZCSQ9 — position and weather

sailwx.info

Track history (hours):
 
Tides and Currents Weather Stations Pressure Air Temp Water Temp Dewpoint Dewpoint Depression Visibility Wind Speed Wind Dir Waves Ship Positions

Stolt Spray

Last reported at 2016-Sep-28 16:32 UTC. Time now 2016-Sep-28 17:03 UTC.
Position N 51°16' E 004°22'.

Length 163 m; draft 6.5 m.

Type: Ship. MMSI: 319591000.

Date/timePositionNaut miles runAvg speedWind from/ knotsBaromVisibWave heightAir tempDewpointWater temp
2016-Sep-28 16:32N 51°16' E 004°22'0 0.0
2016-Sep-28 15:32N 51°16' E 004°22'0 0.0
2016-Sep-28 12:32N 51°16' E 004°22'0 0.0
2016-Sep-28 08:32N 51°16' E 004°22'0 0.0
2016-Sep-28 03:32N 51°16' E 004°22'0 0.0
2016-Sep-28 02:32N 51°16' E 004°22'0 0.2
2016-Sep-28 01:34N 51°16' E 004°21'1 0.3
2016-Sep-27 23:31N 51°15' E 004°21'0 0.0
2016-Sep-27 19:31N 51°15' E 004°21'0 0.0
2016-Sep-27 14:31N 51°15' E 004°21'0 0.0
2016-Sep-27 13:22N 51°15' E 004°21'0 0.0
2016-Sep-27 10:31N 51°15' E 004°21'0 0.0
2016-Sep-27 00:31N 51°15' E 004°21'0 0.0
2016-Sep-26 20:31N 51°15' E 004°21'0 0.0
2016-Sep-26 19:31N 51°15' E 004°21'0 0.0
2016-Sep-26 15:31N 51°15' E 004°21'0 0.0
2016-Sep-26 13:25N 51°15' E 004°21'0 0.0
2016-Sep-26 11:25N 51°15' E 004°21'0 0.0
2016-Sep-26 08:31N 51°15' E 004°21'0 0.0
2016-Sep-26 02:28N 51°15' E 004°21'0 0.0
2016-Sep-26 01:28N 51°15' E 004°21'0 0.0
2016-Sep-26 00:28N 51°15' E 004°21'0 0.0
2016-Sep-25 21:31N 51°15' E 004°21'18 4.4
2016-Sep-25 17:33N 51°22' E 003°56'1212.3
2016-Sep-25 16:33N 51°26' E 003°37'1212.3
2016-Sep-25 15:33N 51°24' E 003°17'1313.3
2016-Sep-25 14:34N 51°22' E 002°56'19 9.6
2016-Sep-25 12:33N 51°21' E 002°26'8 7.6
2016-Sep-25 11:33N 51°17' E 002°15'8 7.7
2016-Sep-25 10:33N 51°13' E 002°04'8 8.1
2016-Sep-25 09:33N 51°10' E 001°52'16 8.2
2016-Sep-25 07:33N 50°59' E 001°33'58 8.2
2016-Sep-25 00:31N 50°23' E 000°22'16 8.1
2016-Sep-24 22:33N 50°19' W 000°02'8 7.5
2016-Sep-24 21:33N 50°17' W 000°14'14 7.1
2016-Sep-24 19:33N 50°13' W 000°35'7 7.3
2016-Sep-24 18:33N 50°11' W 000°46'8 7.8
2016-Sep-24 17:33N 50°09' W 000°58'8 8.1
2016-Sep-24 16:33N 50°07' W 001°10'109 8.4
2016-Sep-24 03:33N 49°27' W 003°48'8 8.3
2016-Sep-24 02:33N 49°23' W 003°59'11 8.5
2016-Sep-24 01:18N 49°18' W 004°14'6 8.3
2016-Sep-24 00:32N 49°15' W 004°22'43 8.6
2016-Sep-23 19:32N 48°53' W 005°18'19 9.7
2016-Sep-23 17:33N 48°41' W 005°40'1110.8
2016-Sep-23 16:33N 48°30' W 005°46'1010.0
2016-Sep-23 15:34N 48°21' W 005°52'59312.6
2016-Sep-21 16:33N 38°55' W 009°56'15110.8
2016-Sep-21 02:33N 36°35' W 008°47'16113.4
2016-Sep-20 14:33N 35°59' W 005°32'1010.3
2016-Sep-20 13:33N 36°05' W 005°22'13812.6
2016-Sep-20 02:33N 36°23' W 002°32'  
Track history (hours):
 
Tides and Currents Weather Stations Pressure Air Temp Water Temp Dewpoint Dewpoint Depression Visibility Wind Speed Wind Dir Waves Ship Positions

Stolt Spray

Last reported at 2016-Sep-28 16:32 UTC. Time now 2016-Sep-28 17:03 UTC.
Position N 51°16' E 004°22'.

Length 163 m; draft 6.5 m.

Type: Ship. MMSI: 319591000.

Date/timePositionNaut miles runAvg speedWind from/ knotsBaromVisibWave heightAir tempDewpointWater temp
2016-Sep-28 16:32N 51°16' E 004°22'0 0.0
2016-Sep-28 15:32N 51°16' E 004°22'0 0.0
2016-Sep-28 12:32N 51°16' E 004°22'0 0.0
2016-Sep-28 08:32N 51°16' E 004°22'0 0.0
2016-Sep-28 03:32N 51°16' E 004°22'0 0.0
2016-Sep-28 02:32N 51°16' E 004°22'0 0.2
2016-Sep-28 01:34N 51°16' E 004°21'1 0.3
2016-Sep-27 23:31N 51°15' E 004°21'0 0.0
2016-Sep-27 19:31N 51°15' E 004°21'0 0.0
2016-Sep-27 14:31N 51°15' E 004°21'0 0.0
2016-Sep-27 13:22N 51°15' E 004°21'0 0.0
2016-Sep-27 10:31N 51°15' E 004°21'0 0.0
2016-Sep-27 00:31N 51°15' E 004°21'0 0.0
2016-Sep-26 20:31N 51°15' E 004°21'0 0.0
2016-Sep-26 19:31N 51°15' E 004°21'0 0.0
2016-Sep-26 15:31N 51°15' E 004°21'0 0.0
2016-Sep-26 13:25N 51°15' E 004°21'0 0.0
2016-Sep-26 11:25N 51°15' E 004°21'0 0.0
2016-Sep-26 08:31N 51°15' E 004°21'0 0.0
2016-Sep-26 02:28N 51°15' E 004°21'0 0.0
2016-Sep-26 01:28N 51°15' E 004°21'0 0.0
2016-Sep-26 00:28N 51°15' E 004°21'0 0.0
2016-Sep-25 21:31N 51°15' E 004°21'18 4.4
2016-Sep-25 17:33N 51°22' E 003°56'1212.3
2016-Sep-25 16:33N 51°26' E 003°37'1212.3
2016-Sep-25 15:33N 51°24' E 003°17'1313.3
2016-Sep-25 14:34N 51°22' E 002°56'19 9.6
2016-Sep-25 12:33N 51°21' E 002°26'8 7.6
2016-Sep-25 11:33N 51°17' E 002°15'8 7.7
2016-Sep-25 10:33N 51°13' E 002°04'8 8.1
2016-Sep-25 09:33N 51°10' E 001°52'16 8.2
2016-Sep-25 07:33N 50°59' E 001°33'58 8.2
2016-Sep-25 00:31N 50°23' E 000°22'16 8.1
2016-Sep-24 22:33N 50°19' W 000°02'8 7.5
2016-Sep-24 21:33N 50°17' W 000°14'14 7.1
2016-Sep-24 19:33N 50°13' W 000°35'7 7.3
2016-Sep-24 18:33N 50°11' W 000°46'8 7.8
2016-Sep-24 17:33N 50°09' W 000°58'8 8.1
2016-Sep-24 16:33N 50°07' W 001°10'109 8.4
2016-Sep-24 03:33N 49°27' W 003°48'8 8.3
2016-Sep-24 02:33N 49°23' W 003°59'11 8.5
2016-Sep-24 01:18N 49°18' W 004°14'6 8.3
2016-Sep-24 00:32N 49°15' W 004°22'43 8.6
2016-Sep-23 19:32N 48°53' W 005°18'19 9.7
2016-Sep-23 17:33N 48°41' W 005°40'1110.8
2016-Sep-23 16:33N 48°30' W 005°46'1010.0
2016-Sep-23 15:34N 48°21' W 005°52'59312.6
2016-Sep-21 16:33N 38°55' W 009°56'15110.8
2016-Sep-21 02:33N 36°35' W 008°47'16113.4
2016-Sep-20 14:33N 35°59' W 005°32'1010.3
2016-Sep-20 13:33N 36°05' W 005°22'13812.6
2016-Sep-20 02:33N 36°23' W 002°32'  

Dump ship's entire track history